createdAt,value
2023-03-26T00:00:42.562Z,102140.81
2023-03-26T00:04:10.876Z,102141.43
2023-03-26T00:07:32.202Z,102142.95
2023-03-26T00:10:37.050Z,102140.38
2023-03-26T00:13:56.225Z,102137.13
2023-03-26T00:17:18.641Z,102135.02
2023-03-26T00:21:18.355Z,102136.52
2023-03-26T00:24:37.981Z,102132.67
2023-03-26T00:28:09.533Z,102133.45
2023-03-26T00:31:38.653Z,102133.73
2023-03-26T00:35:07.511Z,102134.50
2023-03-26T00:38:40.132Z,102135.74
2023-03-26T00:42:15.043Z,102137.52
2023-03-26T00:45:47.368Z,102136.27
2023-03-26T00:49:16.398Z,102136.67
2023-03-26T00:52:46.131Z,102131.85
2023-03-26T00:56:14.784Z,102134.59
2023-03-26T00:59:43.565Z,102132.63
2023-03-26T01:03:26.731Z,102126.60
2023-03-26T01:07:15.789Z,102125.10
2023-03-26T01:10:47.278Z,102125.03
2023-03-26T01:14:16.254Z,102127.42
2023-03-26T01:17:53.783Z,102126.27
2023-03-26T01:21:23.772Z,102125.34
2023-03-26T01:25:05.413Z,102126.01
2023-03-26T01:28:56.562Z,102124.20
2023-03-26T01:32:28.620Z,102126.68
2023-03-26T01:36:09.693Z,102130.05
2023-03-26T01:39:52.278Z,102129.42
2023-03-26T01:43:23.764Z,102130.71
2023-03-26T01:46:55.245Z,102129.88
2023-03-26T01:50:24.580Z,102132.73
2023-03-26T01:53:53.461Z,102132.42
2023-03-26T01:57:50.056Z,102132.26
2023-03-26T02:01:21.610Z,102133.18
2023-03-26T02:05:24.788Z,102132.68
2023-03-26T02:09:04.745Z,102134.24
2023-03-26T02:12:34.152Z,102137.34
2023-03-26T02:16:05.966Z,102136.02
2023-03-26T02:19:35.635Z,102140.20
2023-03-26T02:22:58.250Z,102138.69
2023-03-26T02:26:27.504Z,102141.95
2023-03-26T02:29:57.008Z,102142.29
2023-03-26T02:33:26.134Z,102142.58
2023-03-26T02:36:55.824Z,102143.88
2023-03-26T02:40:25.776Z,102146.27
2023-03-26T02:43:55.245Z,102143.91
2023-03-26T02:47:24.633Z,102149.36
2023-03-26T02:50:47.870Z,102147.44
2023-03-26T02:54:19.726Z,102149.70
2023-03-26T02:57:49.266Z,102148.05
2023-03-26T03:01:18.970Z,102152.15
2023-03-26T03:04:48.684Z,102149.05
2023-03-26T03:08:17.994Z,102146.80
2023-03-26T03:11:51.238Z,102146.31
2023-03-26T03:15:21.172Z,102149.11
2023-03-26T03:18:52.862Z,102153.50
2023-03-26T03:22:21.688Z,102153.71
2023-03-26T03:25:51.201Z,102152.75
2023-03-26T03:29:20.457Z,102151.60
2023-03-26T03:32:41.694Z,102154.60
2023-03-26T03:36:19.695Z,102160.50
2023-03-26T03:39:50.775Z,102163.36
2023-03-26T03:43:15.341Z,102160.66
2023-03-26T03:46:44.428Z,102167.84
2023-03-26T03:50:13.629Z,102171.08
2023-03-26T03:53:39.736Z,102170.58
2023-03-26T03:56:48.760Z,102178.46
2023-03-26T03:59:47.578Z,102178.77
2023-03-26T04:03:17.778Z,102183.62
2023-03-26T04:06:50.013Z,102183.84
2023-03-26T04:10:20.152Z,102182.23
2023-03-26T04:13:48.530Z,102183.60
2023-03-26T04:17:20.762Z,102182.90
2023-03-26T04:20:50.143Z,102182.30
2023-03-26T04:24:19.618Z,102182.50
2023-03-26T04:27:51.792Z,102186.76
2023-03-26T04:31:20.853Z,102187.45
2023-03-26T04:34:50.241Z,102187.56
2023-03-26T04:38:25.603Z,102196.45
2023-03-26T04:42:24.512Z,102196.79
2023-03-26T04:45:44.392Z,102198.08
2023-03-26T04:49:13.816Z,102201.86
2023-03-26T04:52:44.994Z,102199.06
2023-03-26T04:56:22.255Z,102197.69
2023-03-26T04:59:55.912Z,102197.77
2023-03-26T05:03:25.429Z,102196.48
2023-03-26T05:06:54.968Z,102200.46
2023-03-26T05:10:17.901Z,102203.43
2023-03-26T05:13:50.106Z,102204.93
2023-03-26T05:17:19.383Z,102206.55
2023-03-26T05:20:48.190Z,102209.54
2023-03-26T05:24:17.987Z,102209.73
2023-03-26T05:27:37.020Z,102215.45
2023-03-26T05:31:09.658Z,102213.91
2023-03-26T05:34:38.880Z,102211.85
2023-03-26T05:38:10.918Z,102214.50
2023-03-26T05:41:45.229Z,102215.92
2023-03-26T05:45:16.961Z,102218.17
2023-03-26T05:48:46.355Z,102220.34
2023-03-26T05:52:16.387Z,102220.14
2023-03-26T05:55:45.346Z,102223.39
2023-03-26T05:59:14.644Z,102222.67
2023-03-26T06:02:43.721Z,102224.28
2023-03-26T06:06:18.444Z,102225.08
2023-03-26T06:09:47.485Z,102223.20
2023-03-26T06:13:16.655Z,102225.99
2023-03-26T06:16:45.956Z,102228.29
2023-03-26T06:20:14.814Z,102229.68
2023-03-26T06:23:44.066Z,102230.21
2023-03-26T06:27:13.586Z,102234.19
2023-03-26T06:30:45.919Z,102232.34
2023-03-26T06:34:15.113Z,102236.77
2023-03-26T06:37:44.485Z,102241.23
2023-03-26T06:41:13.457Z,102245.42
2023-03-26T06:44:42.895Z,102244.48
2023-03-26T06:48:12.038Z,102245.42
2023-03-26T06:51:40.816Z,102247.85
2023-03-26T06:55:10.144Z,102246.55
2023-03-26T06:58:39.980Z,102245.35
2023-03-26T07:02:09.078Z,102249.21
2023-03-26T07:05:39.585Z,102253.90
2023-03-26T07:09:18.106Z,102257.30
2023-03-26T07:12:46.821Z,102260.50
2023-03-26T07:16:16.367Z,102258.89
2023-03-26T07:19:45.737Z,102259.62
2023-03-26T07:23:20.955Z,102259.60
2023-03-26T07:26:59.326Z,102259.14
2023-03-26T07:30:41.568Z,102258.70
2023-03-26T07:34:17.238Z,102260.20
2023-03-26T07:38:01.752Z,102261.60
2023-03-26T07:41:39.336Z,102263.59
2023-03-26T07:45:23.701Z,102269.73
2023-03-26T07:48:55.608Z,102269.02
2023-03-26T07:52:25.102Z,102267.52
2023-03-26T07:55:44.293Z,102268.17
2023-03-26T07:59:25.612Z,102266.20
2023-03-26T08:03:12.842Z,102267.66
2023-03-26T08:06:54.002Z,102266.90
2023-03-26T08:10:25.884Z,102268.70
2023-03-26T08:13:58.304Z,102269.73
2023-03-26T08:17:36.803Z,102272.11
2023-03-26T08:21:11.541Z,102270.56
2023-03-26T08:24:40.905Z,102277.23
2023-03-26T08:27:58.538Z,102275.50
2023-03-26T08:31:27.114Z,102275.98
2023-03-26T08:34:56.624Z,102277.66
2023-03-26T08:38:25.482Z,102275.52
2023-03-26T08:41:54.989Z,102275.34
2023-03-26T08:45:36.125Z,102272.95
2023-03-26T08:49:11.053Z,102278.81
2023-03-26T08:52:58.082Z,102277.67
2023-03-26T08:56:38.135Z,102278.38
2023-03-26T09:00:07.670Z,102279.29
2023-03-26T09:03:47.651Z,102275.48
2023-03-26T09:07:22.647Z,102275.96
2023-03-26T09:11:13.850Z,102274.11
2023-03-26T09:14:47.676Z,102276.50
2023-03-26T09:18:35.608Z,102275.33
2023-03-26T09:22:17.056Z,102274.93
2023-03-26T09:25:55.789Z,102279.19
2023-03-26T09:29:26.373Z,102282.10
2023-03-26T09:33:26.402Z,102281.08
2023-03-26T09:37:07.599Z,102286.25
2023-03-26T09:40:45.548Z,102282.11
2023-03-26T09:44:23.926Z,102283.65
2023-03-26T09:48:02.914Z,102282.51
2023-03-26T09:51:47.513Z,102283.05
2023-03-26T09:55:14.953Z,102280.73
2023-03-26T09:59:05.612Z,102284.52
2023-03-26T10:02:57.100Z,102283.21
2023-03-26T10:06:42.150Z,102277.88
2023-03-26T10:10:42.192Z,102279.38
2023-03-26T10:14:38.640Z,102284.21
2023-03-26T10:18:27.474Z,102283.20
2023-03-26T10:22:22.822Z,102285.23
2023-03-26T10:25:59.417Z,102280.98
2023-03-26T10:29:34.394Z,102285.79
2023-03-26T10:33:27.943Z,102284.38
2023-03-26T10:37:09.753Z,102279.45
2023-03-26T10:40:48.293Z,102280.73
2023-03-26T10:44:36.065Z,102277.34
2023-03-26T10:48:16.377Z,102277.39
2023-03-26T10:52:00.884Z,102277.04
2023-03-26T10:55:36.430Z,102276.77
2023-03-26T10:59:08.116Z,102281.83
2023-03-26T11:02:42.941Z,102281.11
2023-03-26T11:06:49.096Z,102283.58
2023-03-26T11:10:34.469Z,102287.61
2023-03-26T11:14:16.836Z,102291.11
2023-03-26T11:17:52.096Z,102294.96
2023-03-26T11:21:30.152Z,102295.02
2023-03-26T11:25:08.521Z,102296.21
2023-03-26T11:29:03.665Z,102294.83
2023-03-26T11:32:40.293Z,102301.98
2023-03-26T11:36:18.632Z,102303.08
2023-03-26T11:39:47.792Z,102301.48
2023-03-26T11:43:16.575Z,102304.91
2023-03-26T11:46:46.263Z,102306.50
2023-03-26T11:50:15.392Z,102307.19
2023-03-26T11:53:44.607Z,102308.67
2023-03-26T11:57:07.310Z,102313.09
2023-03-26T12:00:49.448Z,102315.34
2023-03-26T12:04:18.977Z,102316.20
2023-03-26T12:07:58.100Z,102311.94
2023-03-26T12:11:27.710Z,102314.42
2023-03-26T12:15:05.744Z,102318.40
2023-03-26T12:18:34.904Z,102318.41
2023-03-26T12:21:48.032Z,102321.20
2023-03-26T12:25:17.585Z,102320.27
2023-03-26T12:28:46.817Z,102320.70
2023-03-26T12:32:16.406Z,102323.41
2023-03-26T12:35:45.841Z,102321.71
2023-03-26T12:39:16.702Z,102321.40
2023-03-26T12:44:47.436Z,102323.73
2023-03-26T12:47:58.926Z,102326.30
2023-03-26T12:51:00.822Z,102329.72
2023-03-26T12:54:33.194Z,102325.74
2023-03-26T12:58:14.386Z,102324.09
2023-03-26T13:01:52.672Z,102325.23
2023-03-26T13:05:48.990Z,102322.78
2023-03-26T13:09:21.930Z,102325.65
2023-03-26T13:12:49.727Z,102327.41
2023-03-26T13:16:56.084Z,102327.73
2023-03-26T13:20:33.178Z,102323.84
2023-03-26T13:24:05.532Z,102323.34
2023-03-26T13:27:46.783Z,102323.39
2023-03-26T13:32:00.733Z,102327.77
2023-03-26T13:35:18.862Z,102328.17
2023-03-26T13:38:58.863Z,102325.91
2023-03-26T13:42:56.932Z,102329.08
2023-03-26T13:46:38.294Z,102320.09
2023-03-26T13:50:14.043Z,102320.42
2023-03-26T13:53:46.046Z,102321.43
2023-03-26T13:57:17.926Z,102325.42
2023-03-26T14:00:56.516Z,102329.27
2023-03-26T14:04:24.222Z,102331.51
2023-03-26T14:08:03.247Z,102335.30
2023-03-26T14:11:38.653Z,102340.46
2023-03-26T14:15:11.385Z,102339.81
2023-03-26T14:18:43.092Z,102342.21
2023-03-26T14:22:37.056Z,102344.53
2023-03-26T14:26:09.503Z,102348.31
2023-03-26T14:29:57.048Z,102350.17
2023-03-26T14:33:30.113Z,102351.33
2023-03-26T14:37:18.942Z,102356.82
2023-03-26T14:41:41.114Z,102357.05
2023-03-26T14:45:14.734Z,102357.17
2023-03-26T14:49:01.460Z,102359.73
2023-03-26T14:52:39.573Z,102367.05
2023-03-26T14:56:12.072Z,102368.69
2023-03-26T14:59:47.137Z,102366.64
2023-03-26T15:03:23.205Z,102365.82
2023-03-26T15:06:40.969Z,102369.60
2023-03-26T15:10:23.724Z,102367.23
2023-03-26T15:14:14.206Z,102373.06
2023-03-26T15:17:47.524Z,102373.55
2023-03-26T15:21:15.094Z,102371.45
2023-03-26T15:24:44.467Z,102371.08
2023-03-26T15:28:25.256Z,102370.83
2023-03-26T15:31:54.528Z,102371.98
2023-03-26T15:35:35.096Z,102373.89
2023-03-26T15:39:11.834Z,102373.58
2023-03-26T15:42:50.444Z,102375.55
2023-03-26T15:46:19.836Z,102377.62
2023-03-26T15:49:58.283Z,102382.09
2023-03-26T15:53:34.499Z,102385.06
2023-03-26T15:57:25.184Z,102387.42
2023-03-26T16:01:01.093Z,102395.69
2023-03-26T16:04:33.336Z,102394.79
2023-03-26T16:07:58.040Z,102393.03
2023-03-26T16:11:25.537Z,102394.24
2023-03-26T16:15:00.372Z,102397.31
2023-03-26T16:18:28.525Z,102401.21
2023-03-26T16:22:01.035Z,102400.15
2023-03-26T16:25:30.627Z,102402.80
2023-03-26T16:29:09.165Z,102401.79
2023-03-26T16:33:16.713Z,102402.24
2023-03-26T16:36:40.794Z,102405.02
2023-03-26T16:40:18.895Z,102405.08
2023-03-26T16:44:18.681Z,102402.10
2023-03-26T16:48:06.139Z,102402.41
2023-03-26T16:51:41.212Z,102404.33
2023-03-26T16:55:07.356Z,102404.23
2023-03-26T16:58:16.030Z,102403.34
2023-03-26T17:01:56.814Z,102396.52
2023-03-26T17:05:26.300Z,102397.45
2023-03-26T17:09:11.112Z,102397.92
2023-03-26T17:12:43.084Z,102396.58
2023-03-26T17:16:22.203Z,102401.38
2023-03-26T17:20:03.370Z,102401.88
2023-03-26T17:23:39.841Z,102405.09
2023-03-26T17:27:19.927Z,102406.28
2023-03-26T17:31:07.165Z,102412.65
2023-03-26T17:34:37.216Z,102413.94
2023-03-26T17:38:14.814Z,102416.19
2023-03-26T17:41:46.985Z,102418.80
2023-03-26T17:45:22.397Z,102420.74
2023-03-26T17:48:50.074Z,102423.34
2023-03-26T17:52:22.226Z,102424.33
2023-03-26T17:55:51.669Z,102416.65
2023-03-26T17:59:30.134Z,102408.31
2023-03-26T18:03:04.667Z,102409.70
2023-03-26T18:06:24.070Z,102412.73
2023-03-26T18:10:09.004Z,102414.48
2023-03-26T18:13:50.316Z,102416.27
2023-03-26T18:17:19.389Z,102412.06
2023-03-26T18:20:48.545Z,102413.45
2023-03-26T18:24:23.941Z,102410.65
2023-03-26T18:27:56.273Z,102410.48
2023-03-26T18:31:28.562Z,102411.38
2023-03-26T18:34:57.736Z,102408.70
2023-03-26T18:38:35.623Z,102407.75
2023-03-26T18:42:23.447Z,102404.91
2023-03-26T18:46:12.154Z,102401.69
2023-03-26T18:49:44.536Z,102400.80
2023-03-26T18:53:16.502Z,102403.58
2023-03-26T18:57:01.061Z,102400.41
2023-03-26T19:00:29.847Z,102407.06
2023-03-26T19:04:04.660Z,102405.84
2023-03-26T19:07:36.289Z,102402.78
2023-03-26T19:11:06.523Z,102401.40
2023-03-26T19:14:38.654Z,102398.00
2023-03-26T19:18:07.615Z,102395.95
2023-03-26T19:21:39.164Z,102397.11
2023-03-26T19:25:10.622Z,102392.37
2023-03-26T19:28:32.843Z,102391.66
2023-03-26T19:32:14.143Z,102388.42
2023-03-26T19:35:43.604Z,102390.38
2023-03-26T19:39:36.563Z,102385.00
2023-03-26T19:43:07.582Z,102384.44
2023-03-26T19:50:35.301Z,102384.88
2023-03-26T19:51:18.355Z,102388.71
2023-03-26T19:54:13.551Z,102381.97
2023-03-26T19:57:42.688Z,102382.48
2023-03-26T20:01:12.196Z,102382.69
2023-03-26T20:04:47.596Z,102379.21
2023-03-26T20:08:19.689Z,102378.52
2023-03-26T20:11:50.189Z,102381.56
2023-03-26T20:15:19.760Z,102378.40
2023-03-26T20:18:39.649Z,102378.43
2023-03-26T20:22:14.455Z,102370.89
2023-03-26T20:25:43.645Z,102363.91
2023-03-26T20:29:06.246Z,102360.58
2023-03-26T20:32:35.337Z,102359.66
2023-03-26T20:36:06.220Z,102354.94
2023-03-26T20:39:35.295Z,102362.14
2023-03-26T20:43:04.332Z,102364.65
2023-03-26T20:46:36.336Z,102363.00
2023-03-26T20:50:05.201Z,102361.34
2023-03-26T20:53:34.651Z,102360.35
2023-03-26T20:57:04.135Z,102351.59
2023-03-26T21:00:41.879Z,102352.39
2023-03-26T21:04:10.953Z,102352.21
2023-03-26T21:07:42.891Z,102347.70
2023-03-26T21:11:12.035Z,102341.44
2023-03-26T21:14:50.637Z,102340.02
2023-03-26T21:18:19.801Z,102338.11
2023-03-26T21:22:01.446Z,102343.65
2023-03-26T21:25:32.245Z,102339.66
2023-03-26T21:29:20.384Z,102338.83
2023-03-26T21:32:50.876Z,102334.16
2023-03-26T21:36:20.338Z,102333.32
2023-03-26T21:39:50.048Z,102328.34
2023-03-26T21:43:19.329Z,102323.02
2023-03-26T21:46:48.609Z,102318.21
2023-03-26T21:50:17.683Z,102317.40
2023-03-26T21:53:47.834Z,102318.52
2023-03-26T21:57:19.987Z,102319.01
2023-03-26T22:00:56.292Z,102322.34
2023-03-26T22:04:26.172Z,102320.79
2023-03-26T22:07:58.350Z,102317.21
2023-03-26T22:11:27.642Z,102315.39
2023-03-26T22:14:56.601Z,102316.11
2023-03-26T22:18:25.379Z,102317.33
2023-03-26T22:21:55.163Z,102317.39
2023-03-26T22:25:26.947Z,102316.48
2023-03-26T22:28:56.085Z,102315.65
2023-03-26T22:32:25.432Z,102319.61
2023-03-26T22:36:01.966Z,102316.52
2023-03-26T22:39:31.786Z,102315.82
2023-03-26T22:43:00.934Z,102310.78
2023-03-26T22:46:33.216Z,102302.45
2023-03-26T22:49:52.861Z,102304.77
2023-03-26T22:53:22.223Z,102301.64
2023-03-26T22:56:44.100Z,102298.27
2023-03-26T23:00:13.065Z,102294.75
2023-03-26T23:03:42.021Z,102286.69
2023-03-26T23:07:12.106Z,102291.21
2023-03-26T23:10:41.191Z,102288.70
2023-03-26T23:14:11.137Z,102283.48
2023-03-26T23:17:40.188Z,102286.77
2023-03-26T23:21:11.824Z,102286.62
2023-03-26T23:28:23.287Z,102282.94
2023-03-26T23:32:31.787Z,102287.19
2023-03-26T23:35:42.665Z,102284.52
2023-03-26T23:39:13.135Z,102282.81
2023-03-26T23:42:42.637Z,102284.28
2023-03-26T23:46:15.285Z,102283.56
2023-03-26T23:49:44.830Z,102282.77
2023-03-26T23:53:13.684Z,102289.52
2023-03-26T23:56:42.855Z,102277.42
